createdAt,value
2018-02-25T00:01:12.878Z,12.03
2018-02-25T00:03:46.825Z,9.97
2018-02-25T00:06:21.034Z,6.17
2018-02-25T00:08:55.702Z,11.33
2018-02-25T00:11:30.781Z,8.10
2018-02-25T00:14:04.582Z,7.33
2018-02-25T00:16:38.945Z,10.80
2018-02-25T00:19:12.887Z,7.03
2018-02-25T00:21:47.380Z,11.67
2018-02-25T00:24:21.663Z,8.73
2018-02-25T00:26:55.671Z,10.10
2018-02-25T00:29:30.369Z,8.73
2018-02-25T00:32:04.288Z,10.63
2018-02-25T00:34:38.116Z,10.43
2018-02-25T00:37:13.638Z,9.13
2018-02-25T00:39:47.293Z,9.70
2018-02-25T00:42:21.130Z,9.67
2018-02-25T00:44:55.194Z,9.70
2018-02-25T00:47:29.970Z,9.80
2018-02-25T00:50:03.950Z,10.90
2018-02-25T00:52:38.238Z,14.57
2018-02-25T00:55:12.274Z,11.87
2018-02-25T00:57:46.462Z,13.97
2018-02-25T01:00:21.124Z,9.67
2018-02-25T01:02:54.746Z,18.47
2018-02-25T01:05:28.862Z,17.27
2018-02-25T01:08:02.873Z,14.37
2018-02-25T01:10:36.948Z,19.37
2018-02-25T01:13:10.701Z,14.07
2018-02-25T01:15:45.421Z,10.73
2018-02-25T01:18:19.522Z,19.97
2018-02-25T01:20:53.578Z,14.40
2018-02-25T01:23:27.986Z,12.80
2018-02-25T01:26:01.681Z,11.40
2018-02-25T01:28:35.692Z,15.87
2018-02-25T01:31:10.272Z,9.80
2018-02-25T01:33:44.110Z,11.30
2018-02-25T01:36:18.925Z,12.37
2018-02-25T01:38:52.844Z,10.40
2018-02-25T01:41:27.546Z,10.20
2018-02-25T01:44:01.407Z,10.40
2018-02-25T01:46:35.221Z,14.93
2018-02-25T01:49:08.872Z,15.97
2018-02-25T01:51:42.934Z,10.90
2018-02-25T01:54:17.494Z,11.27
2018-02-25T01:56:53.145Z,9.87
2018-02-25T01:59:27.756Z,11.87
2018-02-25T02:02:01.845Z,8.57
2018-02-25T02:04:36.361Z,11.17
2018-02-25T02:07:10.887Z,12.23
2018-02-25T02:09:45.025Z,11.43
2018-02-25T02:12:18.713Z,12.07
2018-02-25T02:14:52.626Z,9.70
2018-02-25T02:17:29.596Z,10.93
2018-02-25T02:20:04.181Z,8.70
2018-02-25T02:22:38.630Z,11.37
2018-02-25T02:25:12.543Z,12.20
2018-02-25T02:27:46.619Z,16.77
2018-02-25T02:30:21.761Z,13.00
2018-02-25T02:32:56.039Z,13.57
2018-02-25T02:35:30.156Z,10.23
2018-02-25T02:38:04.012Z,17.20
2018-02-25T02:40:38.150Z,11.20
2018-02-25T02:43:12.294Z,18.10
2018-02-25T02:45:47.563Z,24.00
2018-02-25T02:48:21.611Z,35.07
2018-02-25T02:50:56.491Z,20.20
2018-02-25T02:53:31.337Z,22.37
2018-02-25T02:56:06.158Z,13.97
2018-02-25T02:58:40.400Z,17.50
2018-02-25T03:01:15.075Z,14.60
2018-02-25T03:03:49.772Z,13.37
2018-02-25T03:06:23.728Z,10.03
2018-02-25T03:08:58.411Z,14.17
2018-02-25T03:11:32.393Z,14.67
2018-02-25T03:14:06.205Z,12.90
2018-02-25T03:16:41.492Z,21.67
2018-02-25T03:19:15.622Z,12.90
2018-02-25T03:21:50.098Z,10.70
2018-02-25T03:24:23.893Z,12.97
2018-02-25T03:26:57.697Z,12.90
2018-02-25T03:29:31.554Z,11.10
2018-02-25T03:32:06.888Z,13.47
2018-02-25T03:34:41.930Z,9.30
2018-02-25T03:37:15.799Z,12.73
2018-02-25T03:39:49.623Z,13.60
2018-02-25T03:42:23.467Z,12.13
2018-02-25T03:44:58.740Z,14.53
2018-02-25T03:47:32.549Z,14.10
2018-02-25T03:50:06.202Z,12.07
2018-02-25T03:52:39.822Z,11.23
2018-02-25T03:55:13.641Z,14.37
2018-02-25T03:57:47.402Z,9.80
2018-02-25T04:00:21.323Z,14.03
2018-02-25T04:02:55.828Z,10.03
2018-02-25T04:05:30.031Z,12.37
2018-02-25T04:08:03.781Z,11.13
2018-02-25T04:10:37.890Z,8.80
2018-02-25T04:13:12.698Z,10.97
2018-02-25T04:15:46.766Z,10.90
2018-02-25T04:18:20.422Z,9.43
2018-02-25T04:20:55.353Z,7.87
2018-02-25T04:23:29.216Z,10.97
2018-02-25T04:26:03.182Z,10.73
2018-02-25T04:28:37.329Z,9.63
2018-02-25T04:31:12.012Z,9.17
2018-02-25T04:33:46.033Z,9.70
2018-02-25T04:36:19.970Z,8.57
2018-02-25T04:38:53.902Z,9.03
2018-02-25T04:41:27.782Z,10.03
2018-02-25T04:44:01.513Z,9.80
2018-02-25T04:46:35.375Z,8.97
2018-02-25T04:49:09.101Z,10.43
2018-02-25T04:51:43.778Z,8.70
2018-02-25T04:54:18.594Z,10.87
2018-02-25T04:56:52.963Z,11.23
2018-02-25T04:59:26.643Z,9.67
2018-02-25T05:02:01.252Z,9.87
2018-02-25T05:04:35.454Z,11.07
2018-02-25T05:07:09.336Z,10.70
2018-02-25T05:09:43.136Z,8.70
2018-02-25T05:12:17.805Z,8.87
2018-02-25T05:14:52.745Z,10.53
2018-02-25T05:17:27.057Z,13.30
2018-02-25T05:20:01.682Z,11.40
2018-02-25T05:22:35.529Z,10.60
2018-02-25T05:25:09.436Z,10.07
2018-02-25T05:27:44.019Z,10.87
2018-02-25T05:30:18.389Z,11.83
2018-02-25T05:32:52.598Z,12.37
2018-02-25T05:35:26.204Z,11.60
2018-02-25T05:38:00.267Z,11.20
2018-02-25T05:40:34.755Z,10.83
2018-02-25T05:43:08.950Z,11.50
2018-02-25T05:45:42.733Z,11.37
2018-02-25T05:48:17.343Z,11.17
2018-02-25T05:50:51.562Z,11.63
2018-02-25T05:53:26.293Z,12.00
2018-02-25T05:56:01.813Z,11.33
2018-02-25T05:58:37.659Z,11.27
2018-02-25T06:01:12.837Z,10.70
2018-02-25T06:03:47.944Z,12.47
2018-02-25T06:06:22.068Z,10.90
2018-02-25T06:08:56.131Z,11.40
2018-02-25T06:11:30.669Z,11.60
2018-02-25T06:14:04.550Z,10.87
2018-02-25T06:16:38.203Z,11.60
2018-02-25T06:19:12.826Z,11.07
2018-02-25T06:21:47.317Z,11.53
2018-02-25T06:24:21.972Z,11.90
2018-02-25T06:26:57.339Z,10.03
2018-02-25T06:29:31.883Z,11.97
2018-02-25T06:32:06.263Z,12.17
2018-02-25T06:34:40.256Z,10.97
2018-02-25T06:37:14.881Z,11.37
2018-02-25T06:39:49.482Z,10.17
2018-02-25T06:42:23.396Z,11.70
2018-02-25T06:44:57.324Z,11.27
2018-02-25T06:47:31.730Z,11.37
2018-02-25T06:50:05.888Z,10.60
2018-02-25T06:52:40.484Z,11.00
2018-02-25T06:55:14.745Z,12.13
2018-02-25T06:57:48.408Z,11.90
2018-02-25T07:00:22.411Z,11.10
2018-02-25T07:02:56.815Z,11.40
2018-02-25T07:05:31.573Z,10.77
2018-02-25T07:08:05.701Z,12.37
2018-02-25T07:10:40.528Z,11.40
2018-02-25T07:13:14.533Z,11.13
2018-02-25T07:15:49.267Z,11.17
2018-02-25T07:18:23.415Z,12.47
2018-02-25T07:20:58.814Z,11.27
2018-02-25T07:23:32.817Z,11.20
2018-02-25T07:26:06.712Z,12.03
2018-02-25T07:28:40.493Z,11.03
2018-02-25T07:31:14.191Z,11.80
2018-02-25T07:33:48.058Z,12.43
2018-02-25T07:36:21.964Z,12.17
2018-02-25T07:38:56.751Z,11.50
2018-02-25T07:41:31.341Z,12.57
2018-02-25T07:44:05.481Z,12.10
2018-02-25T07:46:39.451Z,11.47
2018-02-25T07:49:13.383Z,11.00
2018-02-25T07:51:47.957Z,11.33
2018-02-25T07:54:22.235Z,11.03
2018-02-25T07:56:56.138Z,11.67
2018-02-25T07:59:30.001Z,11.40
2018-02-25T08:02:03.834Z,10.30
2018-02-25T08:04:37.555Z,11.90
2018-02-25T08:07:12.120Z,11.00
2018-02-25T08:09:46.019Z,10.30
2018-02-25T08:12:19.872Z,11.47
2018-02-25T08:14:53.749Z,11.27
2018-02-25T08:17:27.928Z,10.03
2018-02-25T08:20:01.883Z,9.60
2018-02-25T08:22:35.662Z,10.60
2018-02-25T08:25:11.061Z,10.23
2018-02-25T08:27:45.459Z,10.70
2018-02-25T08:30:19.292Z,11.53
2018-02-25T08:32:53.019Z,11.20
2018-02-25T08:35:26.771Z,10.30
2018-02-25T08:38:00.545Z,10.17
2018-02-25T08:40:35.150Z,10.60
2018-02-25T08:43:09.548Z,10.23
2018-02-25T08:45:43.494Z,9.87
2018-02-25T08:48:18.002Z,9.97
2018-02-25T08:50:52.030Z,9.60
2018-02-25T08:53:25.978Z,9.47
2018-02-25T08:55:59.598Z,9.40
2018-02-25T08:58:33.263Z,9.23
2018-02-25T09:01:07.088Z,8.53
2018-02-25T09:03:40.897Z,8.70
2018-02-25T09:06:14.755Z,8.73
2018-02-25T09:08:49.382Z,8.87
2018-02-25T09:11:23.451Z,8.63
2018-02-25T09:13:58.171Z,8.00
2018-02-25T09:16:31.902Z,9.30
2018-02-25T09:19:05.971Z,8.67
2018-02-25T09:21:39.644Z,7.70
2018-02-25T09:24:14.271Z,8.23
2018-02-25T09:26:48.274Z,8.07
2018-02-25T09:29:22.796Z,7.83
2018-02-25T09:31:57.111Z,7.73
2018-02-25T09:34:31.676Z,8.23
2018-02-25T09:37:06.354Z,8.07
2018-02-25T09:39:41.282Z,7.73
2018-02-25T09:42:15.877Z,7.83
2018-02-25T09:44:49.917Z,7.63
2018-02-25T09:47:24.626Z,8.00
2018-02-25T09:49:59.921Z,6.90
2018-02-25T09:52:34.159Z,7.30
2018-02-25T09:55:08.850Z,7.40
2018-02-25T09:57:42.572Z,6.53
2018-02-25T10:00:16.468Z,6.83
2018-02-25T10:02:50.115Z,7.43
2018-02-25T10:05:24.680Z,6.67
2018-02-25T10:07:59.019Z,6.40
2018-02-25T10:10:33.548Z,6.40
2018-02-25T10:13:08.422Z,6.83
2018-02-25T10:15:42.642Z,6.37
2018-02-25T10:18:20.249Z,7.00
2018-02-25T10:20:54.432Z,6.50
2018-02-25T10:23:28.567Z,7.47
2018-02-25T10:26:03.625Z,6.40
2018-02-25T10:28:37.437Z,7.10
2018-02-25T10:31:11.318Z,7.00
2018-02-25T10:33:46.796Z,6.03
2018-02-25T10:36:21.205Z,6.30
2018-02-25T10:38:55.587Z,6.00
2018-02-25T10:41:29.654Z,6.17
2018-02-25T10:44:03.422Z,6.03
2018-02-25T10:46:38.078Z,5.60
2018-02-25T10:49:12.443Z,5.60
2018-02-25T10:51:47.314Z,6.10
2018-02-25T10:54:22.210Z,6.53
2018-02-25T10:56:56.233Z,6.47
2018-02-25T10:59:31.000Z,7.53
2018-02-25T11:02:06.211Z,6.80
2018-02-25T11:04:41.668Z,6.13
2018-02-25T11:07:15.756Z,6.50
2018-02-25T11:09:50.493Z,6.63
2018-02-25T11:12:25.090Z,6.53
2018-02-25T11:14:59.831Z,6.13
2018-02-25T11:17:34.764Z,6.80
2018-02-25T11:20:10.489Z,6.53
2018-02-25T11:22:44.985Z,5.87
2018-02-25T11:25:19.462Z,7.03
2018-02-25T11:27:53.382Z,6.77
2018-02-25T11:30:27.857Z,5.77
2018-02-25T11:33:01.890Z,6.13
2018-02-25T11:35:35.791Z,5.63
2018-02-25T11:38:09.602Z,6.23
2018-02-25T11:40:43.485Z,6.20
2018-02-25T11:43:17.239Z,5.73
2018-02-25T11:45:51.347Z,6.83
2018-02-25T11:48:26.685Z,6.10
2018-02-25T11:51:01.373Z,5.70
2018-02-25T11:53:35.618Z,5.90
2018-02-25T11:56:09.476Z,7.60
2018-02-25T11:58:44.590Z,6.87
2018-02-25T12:01:19.041Z,6.37
2018-02-25T12:03:53.549Z,6.13
2018-02-25T12:06:27.970Z,5.87
2018-02-25T12:09:02.295Z,5.23
2018-02-25T12:11:36.773Z,6.50
2018-02-25T12:14:11.125Z,6.70
2018-02-25T12:16:45.152Z,6.67
2018-02-25T12:19:19.267Z,5.73
2018-02-25T12:21:53.847Z,7.40
2018-02-25T12:24:27.905Z,6.27
2018-02-25T12:27:01.922Z,5.67
2018-02-25T12:29:36.534Z,6.80
2018-02-25T12:32:11.311Z,7.57
2018-02-25T12:34:45.375Z,5.30
2018-02-25T12:37:19.175Z,6.23
2018-02-25T12:39:53.022Z,6.53
2018-02-25T12:42:26.771Z,5.77
2018-02-25T12:45:00.658Z,6.17
2018-02-25T12:47:34.547Z,5.90
2018-02-25T12:50:08.417Z,6.60
2018-02-25T12:52:43.131Z,5.77
2018-02-25T12:55:18.018Z,6.37
2018-02-25T12:57:52.003Z,6.50
2018-02-25T13:00:26.531Z,5.80
2018-02-25T13:03:00.663Z,6.17
2018-02-25T13:05:34.582Z,6.07
2018-02-25T13:08:08.804Z,6.20
2018-02-25T13:10:43.304Z,7.07
2018-02-25T13:13:17.325Z,6.33
2018-02-25T13:15:51.403Z,7.00
2018-02-25T13:18:25.678Z,6.83
2018-02-25T13:21:00.056Z,6.20
2018-02-25T13:23:34.022Z,7.10
2018-02-25T13:26:07.775Z,7.00
2018-02-25T13:28:42.211Z,6.70
2018-02-25T13:31:16.515Z,6.30
2018-02-25T13:33:51.422Z,6.33
2018-02-25T13:36:26.792Z,8.20
2018-02-25T13:39:01.216Z,6.70
2018-02-25T13:41:35.515Z,6.27
2018-02-25T13:44:09.449Z,7.07
2018-02-25T13:46:44.149Z,6.67
2018-02-25T13:49:18.168Z,7.20
2018-02-25T13:51:52.115Z,5.50
2018-02-25T13:54:26.573Z,5.97
2018-02-25T13:57:00.741Z,5.20
2018-02-25T13:59:34.350Z,6.87
2018-02-25T14:02:08.314Z,7.40
2018-02-25T14:04:42.025Z,7.70
2018-02-25T14:07:16.682Z,5.83
2018-02-25T14:09:50.810Z,5.83
2018-02-25T14:12:24.585Z,5.97
2018-02-25T14:14:58.967Z,6.67
2018-02-25T14:17:33.821Z,4.87
2018-02-25T14:20:08.532Z,6.40
2018-02-25T14:22:43.651Z,6.40
2018-02-25T14:25:18.090Z,5.73
2018-02-25T14:27:53.025Z,7.10
2018-02-25T14:30:27.178Z,4.90
2018-02-25T14:33:01.353Z,4.80
2018-02-25T14:35:35.568Z,6.27
2018-02-25T14:38:09.835Z,5.83
2018-02-25T14:40:44.219Z,6.30
2018-02-25T14:43:18.519Z,5.50
2018-02-25T14:45:52.531Z,6.13
2018-02-25T14:48:26.284Z,5.87
2018-02-25T14:51:01.049Z,4.97
2018-02-25T14:53:35.575Z,5.13
2018-02-25T14:56:09.290Z,4.97
2018-02-25T14:58:43.346Z,5.17
2018-02-25T15:01:17.886Z,6.30
2018-02-25T15:03:52.136Z,5.13
2018-02-25T15:06:26.045Z,5.20
2018-02-25T15:08:59.832Z,4.10
2018-02-25T15:11:34.340Z,6.07
2018-02-25T15:14:08.445Z,6.17
2018-02-25T15:16:42.258Z,6.37
2018-02-25T15:19:16.042Z,5.53
2018-02-25T15:21:49.825Z,5.77
2018-02-25T15:24:23.955Z,4.73
2018-02-25T15:26:58.362Z,4.77
2018-02-25T15:29:32.300Z,6.43
2018-02-25T15:32:06.197Z,7.53
2018-02-25T15:34:41.184Z,6.57
2018-02-25T15:37:15.404Z,6.27
2018-02-25T15:39:50.232Z,4.87
2018-02-25T15:42:24.141Z,5.23
2018-02-25T15:44:58.801Z,6.27
2018-02-25T15:47:33.370Z,6.13
2018-02-25T15:50:07.397Z,5.27
2018-02-25T15:52:42.507Z,5.63
2018-02-25T15:55:17.979Z,6.07
2018-02-25T15:57:52.461Z,5.80
2018-02-25T16:00:27.123Z,5.83
2018-02-25T16:03:01.497Z,4.97
2018-02-25T16:05:36.741Z,6.67
2018-02-25T16:08:10.669Z,4.53
2018-02-25T16:10:44.466Z,6.33
2018-02-25T16:13:18.108Z,4.47
2018-02-25T16:15:52.142Z,5.63
2018-02-25T16:18:25.987Z,5.63
2018-02-25T16:20:59.771Z,5.57
2018-02-25T16:23:33.438Z,9.67
2018-02-25T16:26:08.169Z,7.33
2018-02-25T16:28:41.801Z,6.23
2018-02-25T16:31:15.609Z,7.70
2018-02-25T16:33:50.218Z,8.17
2018-02-25T16:36:24.941Z,7.13
2018-02-25T16:38:59.514Z,5.80
2018-02-25T16:41:33.427Z,5.17
2018-02-25T16:44:08.458Z,7.33
2018-02-25T16:46:42.186Z,6.60
2018-02-25T16:49:16.896Z,6.17
2018-02-25T16:51:51.946Z,6.40
2018-02-25T16:54:25.865Z,4.90
2018-02-25T16:57:00.690Z,7.17
2018-02-25T16:59:34.925Z,5.77
2018-02-25T17:02:08.645Z,6.63
2018-02-25T17:04:42.640Z,5.10
2018-02-25T17:07:16.767Z,8.17
2018-02-25T17:09:51.337Z,7.50
2018-02-25T17:12:25.461Z,5.90
2018-02-25T17:14:59.399Z,6.17
2018-02-25T17:17:33.410Z,5.03
2018-02-25T17:20:07.966Z,7.20
2018-02-25T17:22:42.071Z,6.60
2018-02-25T17:25:15.674Z,8.07
2018-02-25T17:27:49.429Z,7.77
2018-02-25T17:30:23.188Z,6.20
2018-02-25T17:32:57.064Z,6.30
2018-02-25T17:35:30.952Z,9.03
2018-02-25T17:38:04.944Z,8.30
2018-02-25T17:40:39.432Z,7.60
2018-02-25T17:43:13.578Z,5.27
2018-02-25T17:45:47.349Z,7.50
2018-02-25T17:48:21.066Z,6.00
2018-02-25T17:50:54.798Z,7.20
2018-02-25T17:53:28.794Z,7.03
2018-02-25T17:56:02.508Z,6.20
2018-02-25T17:58:36.303Z,5.60
2018-02-25T18:01:09.966Z,8.00
2018-02-25T18:03:44.226Z,6.43
2018-02-25T18:06:18.052Z,6.33
2018-02-25T18:08:52.091Z,7.20
2018-02-25T18:11:25.954Z,7.87
2018-02-25T18:14:00.583Z,6.80
2018-02-25T18:16:34.899Z,6.63
2018-02-25T18:19:10.333Z,7.17
2018-02-25T18:21:44.261Z,6.50
2018-02-25T18:24:18.843Z,8.27
2018-02-25T18:26:52.934Z,7.43
2018-02-25T18:29:26.793Z,6.50
2018-02-25T18:32:00.805Z,5.90
2018-02-25T18:34:35.424Z,7.73
2018-02-25T18:37:09.445Z,7.17
2018-02-25T18:39:43.232Z,6.20
2018-02-25T18:42:17.224Z,7.37
2018-02-25T18:44:50.962Z,7.63
2018-02-25T18:47:24.820Z,6.63
2018-02-25T18:49:58.719Z,9.27
2018-02-25T18:52:33.361Z,6.80
2018-02-25T18:55:08.021Z,8.80
2018-02-25T18:57:42.454Z,10.73
2018-02-25T19:00:16.346Z,7.60
2018-02-25T19:02:51.072Z,9.43
2018-02-25T19:05:25.325Z,7.90
2018-02-25T19:07:59.252Z,7.90
2018-02-25T19:10:33.070Z,8.10
2018-02-25T19:13:06.885Z,7.77
2018-02-25T19:15:40.781Z,8.40
2018-02-25T19:18:14.621Z,7.70
2018-02-25T19:20:48.774Z,6.43
2018-02-25T19:23:22.445Z,7.47
2018-02-25T19:25:57.015Z,8.83
2018-02-25T19:28:31.635Z,9.83
2018-02-25T19:31:06.626Z,8.17
2018-02-25T19:33:41.731Z,7.20
2018-02-25T19:36:22.647Z,7.03
2018-02-25T19:39:02.189Z,9.00
2018-02-25T19:41:42.532Z,6.50
2018-02-25T19:44:16.849Z,8.13
2018-02-25T19:46:51.667Z,8.90
2018-02-25T19:49:26.275Z,8.73
2018-02-25T19:52:00.246Z,7.60
2018-02-25T19:54:34.728Z,8.30
2018-02-25T19:57:08.876Z,7.80
2018-02-25T19:59:43.566Z,7.90
2018-02-25T20:02:17.713Z,8.30
2018-02-25T20:04:51.583Z,8.80
2018-02-25T20:07:27.162Z,11.37
2018-02-25T20:10:01.330Z,14.93
2018-02-25T20:12:35.838Z,9.73
2018-02-25T20:15:09.998Z,8.17
2018-02-25T20:17:43.846Z,10.47
2018-02-25T20:20:19.300Z,8.40
2018-02-25T20:22:53.862Z,10.93
2018-02-25T20:25:27.933Z,7.47
2018-02-25T20:28:01.610Z,8.50
2018-02-25T20:30:35.619Z,7.13
2018-02-25T20:33:09.383Z,9.73
2018-02-25T20:35:43.189Z,9.13
2018-02-25T20:38:17.086Z,7.07
2018-02-25T20:40:50.903Z,10.33
2018-02-25T20:43:25.645Z,10.30
2018-02-25T20:45:59.373Z,8.37
2018-02-25T20:48:33.390Z,13.13
2018-02-25T20:51:08.259Z,8.57
2018-02-25T20:53:44.035Z,7.43
2018-02-25T20:56:18.675Z,8.60
2018-02-25T20:58:53.175Z,9.20
2018-02-25T21:01:27.366Z,8.23
2018-02-25T21:04:01.170Z,11.53
2018-02-25T21:06:35.329Z,12.03
2018-02-25T21:09:09.442Z,6.57
2018-02-25T21:11:44.131Z,9.53
2018-02-25T21:14:17.943Z,7.07
2018-02-25T21:16:51.659Z,7.53
2018-02-25T21:19:25.510Z,9.47
2018-02-25T21:22:00.063Z,8.30
2018-02-25T21:24:34.705Z,9.03
2018-02-25T21:27:08.947Z,7.13
2018-02-25T21:29:43.473Z,9.10
2018-02-25T21:32:18.390Z,7.83
2018-02-25T21:34:52.621Z,8.73
2018-02-25T21:37:26.504Z,8.07
2018-02-25T21:40:01.158Z,8.70
2018-02-25T21:42:36.786Z,7.63
2018-02-25T21:45:11.495Z,10.63
2018-02-25T21:47:45.283Z,11.40
2018-02-25T21:50:19.117Z,8.83
2018-02-25T21:52:52.830Z,11.00
2018-02-25T21:55:26.799Z,9.47
2018-02-25T21:58:07.087Z,8.97
2018-02-25T22:00:47.189Z,11.83
2018-02-25T22:03:27.371Z,9.00
2018-02-25T22:06:01.397Z,7.83
2018-02-25T22:08:35.197Z,7.20
2018-02-25T22:11:10.701Z,6.70
2018-02-25T22:13:44.575Z,8.03
2018-02-25T22:16:18.643Z,9.27
2018-02-25T22:18:54.191Z,11.23
2018-02-25T22:21:28.242Z,8.93
2018-02-25T22:24:02.169Z,9.17
2018-02-25T22:26:36.052Z,10.30
2018-02-25T22:29:10.642Z,8.17
2018-02-25T22:31:44.349Z,6.93
2018-02-25T22:34:18.353Z,6.13
2018-02-25T22:36:53.222Z,11.60
2018-02-25T22:39:27.438Z,11.47
2018-02-25T22:42:01.495Z,11.13
2018-02-25T22:44:36.890Z,9.93
2018-02-25T22:47:10.935Z,10.13
2018-02-25T22:49:45.401Z,12.53
2018-02-25T22:52:19.195Z,8.93
2018-02-25T22:54:53.295Z,8.17
2018-02-25T22:57:28.802Z,12.03
2018-02-25T23:00:02.967Z,9.53
2018-02-25T23:02:36.731Z,10.30
2018-02-25T23:05:11.485Z,8.90
2018-02-25T23:07:45.929Z,11.10
2018-02-25T23:10:20.059Z,8.30
2018-02-25T23:12:55.311Z,10.70
2018-02-25T23:15:29.917Z,12.23
2018-02-25T23:18:03.782Z,8.20
2018-02-25T23:20:37.647Z,6.70
2018-02-25T23:23:11.780Z,11.43
2018-02-25T23:25:45.405Z,10.97
2018-02-25T23:28:19.252Z,9.20
2018-02-25T23:30:53.153Z,12.23
2018-02-25T23:33:27.018Z,13.30
2018-02-25T23:36:00.697Z,11.07
2018-02-25T23:38:34.555Z,10.53
2018-02-25T23:41:09.074Z,10.83
2018-02-25T23:43:43.110Z,13.20
2018-02-25T23:46:16.855Z,10.53
2018-02-25T23:48:51.544Z,9.57
2018-02-25T23:51:25.626Z,10.70
2018-02-25T23:53:59.721Z,10.77
2018-02-25T23:56:34.543Z,12.67
2018-02-25T23:59:08.343Z,9.40
